createdAt,value
2023-05-18T00:00:54.355Z,100.00
2023-05-18T00:03:23.068Z,100.00
2023-05-18T00:05:51.785Z,100.00
2023-05-18T00:08:20.837Z,100.00
2023-05-18T00:10:49.764Z,100.00
2023-05-18T00:13:18.298Z,100.00
2023-05-18T00:15:46.736Z,100.00
2023-05-18T00:18:16.560Z,100.00
2023-05-18T00:20:44.960Z,100.00
2023-05-18T00:23:16.837Z,100.00
2023-05-18T00:25:45.809Z,100.00
2023-05-18T00:28:14.247Z,100.00
2023-05-18T00:30:42.868Z,100.00
2023-05-18T00:33:11.561Z,100.00
2023-05-18T00:35:41.546Z,100.00
2023-05-18T00:38:12.191Z,100.00
2023-05-18T00:40:40.854Z,100.00
2023-05-18T00:43:09.633Z,100.00
2023-05-18T00:45:38.646Z,100.00
2023-05-18T00:48:07.937Z,100.00
2023-05-18T00:50:36.911Z,100.00
2023-05-18T00:53:06.840Z,100.00
2023-05-18T00:55:35.500Z,100.00
2023-05-18T00:58:05.672Z,100.00
2023-05-18T01:00:37.836Z,100.00
2023-05-18T01:03:10.607Z,100.00
2023-05-18T01:05:39.303Z,100.00
2023-05-18T01:08:10.224Z,100.00
2023-05-18T01:10:42.446Z,100.00
2023-05-18T01:13:17.236Z,100.00
2023-05-18T01:15:50.305Z,100.00
2023-05-18T01:18:29.154Z,100.00
2023-05-18T01:21:01.433Z,100.00
2023-05-18T01:23:55.869Z,100.00
2023-05-18T01:26:30.305Z,100.00
2023-05-18T01:29:01.546Z,100.00
2023-05-18T01:31:31.423Z,100.00
2023-05-18T01:34:00.138Z,100.00
2023-05-18T01:36:28.780Z,100.00
2023-05-18T01:39:01.583Z,100.00
2023-05-18T01:41:36.575Z,100.00
2023-05-18T01:44:15.849Z,100.00
2023-05-18T01:46:51.355Z,100.00
2023-05-18T01:49:28.364Z,100.00
2023-05-18T01:51:59.717Z,100.00
2023-05-18T01:54:29.042Z,100.00
2023-05-18T01:57:01.178Z,100.00
2023-05-18T01:59:30.808Z,100.00
2023-05-18T02:02:00.782Z,100.00
2023-05-18T02:04:29.947Z,100.00
2023-05-18T02:06:58.489Z,100.00
2023-05-18T02:09:27.175Z,100.00
2023-05-18T02:11:55.687Z,100.00
2023-05-18T02:14:27.840Z,100.00
2023-05-18T02:16:57.708Z,100.00
2023-05-18T02:19:26.453Z,100.00
2023-05-18T02:21:56.245Z,100.00
2023-05-18T02:24:24.944Z,100.00
2023-05-18T02:26:53.496Z,100.00
2023-05-18T02:29:21.868Z,100.00
2023-05-18T02:31:52.451Z,100.00
2023-05-18T02:34:22.162Z,100.00
2023-05-18T02:36:50.879Z,100.00
2023-05-18T02:39:19.578Z,100.00
2023-05-18T02:41:48.060Z,100.00
2023-05-18T02:44:16.769Z,100.00
2023-05-18T02:46:45.244Z,100.00
2023-05-18T02:49:15.343Z,100.00
2023-05-18T02:51:44.619Z,100.00
2023-05-18T02:54:13.782Z,100.00
2023-05-18T02:56:43.935Z,100.00
2023-05-18T02:59:21.916Z,100.00
2023-05-18T03:01:50.763Z,100.00
2023-05-18T03:04:22.027Z,100.00
2023-05-18T03:06:54.414Z,100.00
2023-05-18T03:09:24.149Z,100.00
2023-05-18T03:11:55.932Z,100.00
2023-05-18T03:14:24.629Z,100.00
2023-05-18T03:16:54.526Z,100.00
2023-05-18T03:19:27.596Z,100.00
2023-05-18T03:21:58.049Z,100.00
2023-05-18T03:24:30.557Z,100.00
2023-05-18T03:27:02.447Z,100.00
2023-05-18T03:29:31.744Z,100.00
2023-05-18T03:32:04.289Z,100.00
2023-05-18T03:34:34.313Z,100.00
2023-05-18T03:37:03.171Z,100.00
2023-05-18T03:39:33.600Z,100.00
2023-05-18T03:42:02.189Z,100.00
2023-05-18T03:44:31.311Z,100.00
2023-05-18T03:46:59.726Z,100.00
2023-05-18T03:49:29.816Z,100.00
2023-05-18T03:51:59.799Z,100.00
2023-05-18T03:54:28.519Z,100.00
2023-05-18T03:56:57.135Z,100.00
2023-05-18T03:59:26.390Z,100.00
2023-05-18T04:01:54.951Z,100.00
2023-05-18T04:04:27.704Z,100.00
2023-05-18T04:06:56.551Z,100.00
2023-05-18T04:09:28.212Z,100.00
2023-05-18T04:11:56.731Z,100.00
2023-05-18T04:14:28.267Z,100.00
2023-05-18T04:16:58.452Z,100.00
2023-05-18T04:19:27.210Z,100.00
2023-05-18T04:21:56.004Z,100.00
2023-05-18T04:24:24.970Z,100.00
2023-05-18T04:26:56.232Z,100.00
2023-05-18T04:29:24.801Z,100.00
2023-05-18T04:31:53.762Z,100.00
2023-05-18T04:34:22.390Z,100.00
2023-05-18T04:36:50.990Z,100.00
2023-05-18T04:39:19.495Z,100.00
2023-05-18T04:41:48.616Z,100.00
2023-05-18T04:44:20.220Z,100.00
2023-05-18T04:46:48.909Z,100.00
2023-05-18T04:49:17.486Z,100.00
2023-05-18T04:51:47.043Z,100.00
2023-05-18T04:54:16.259Z,100.00
2023-05-18T04:56:47.447Z,100.00
2023-05-18T04:59:16.145Z,100.00
2023-05-18T05:01:46.385Z,100.00
2023-05-18T05:04:15.460Z,100.00
2023-05-18T05:06:43.853Z,100.00
2023-05-18T05:09:14.254Z,100.00
2023-05-18T05:11:43.317Z,100.00
2023-05-18T05:14:12.021Z,100.00
2023-05-18T05:16:41.136Z,100.00
2023-05-18T05:19:11.027Z,100.00
2023-05-18T05:21:40.575Z,100.00
2023-05-18T05:24:09.177Z,100.00
2023-05-18T05:26:38.153Z,100.00
2023-05-18T05:29:10.680Z,100.00
2023-05-18T05:31:39.476Z,100.00
2023-05-18T05:34:12.077Z,100.00
2023-05-18T05:36:42.696Z,100.00
2023-05-18T05:39:11.805Z,100.00
2023-05-18T05:41:40.713Z,100.00
2023-05-18T05:44:09.261Z,100.00
2023-05-18T05:46:37.797Z,100.00
2023-05-18T05:49:06.883Z,100.00
2023-05-18T05:51:35.523Z,100.00
2023-05-18T05:54:06.092Z,100.00
2023-05-18T05:56:38.587Z,100.00
2023-05-18T05:59:07.104Z,100.00
2023-05-18T06:01:36.275Z,100.00
2023-05-18T06:04:06.665Z,100.00
2023-05-18T06:06:35.273Z,100.00
2023-05-18T06:09:06.235Z,100.00
2023-05-18T06:11:35.157Z,100.00
2023-05-18T06:14:03.739Z,100.00
2023-05-18T06:16:32.416Z,100.00
2023-05-18T06:19:02.248Z,100.00
2023-05-18T06:21:31.677Z,100.00
2023-05-18T06:24:01.596Z,100.00
2023-05-18T06:26:34.367Z,100.00
2023-05-18T06:29:30.742Z,100.00
2023-05-18T06:32:28.485Z,100.00
2023-05-18T06:34:58.262Z,100.00
2023-05-18T06:37:26.731Z,100.00
2023-05-18T06:39:55.291Z,100.00
2023-05-18T06:42:25.331Z,100.00
2023-05-18T06:45:03.131Z,100.00
2023-05-18T06:47:51.683Z,100.00
2023-05-18T06:50:20.340Z,100.00
2023-05-18T06:52:49.742Z,100.00
2023-05-18T06:55:18.654Z,100.00
2023-05-18T06:57:48.656Z,100.00
2023-05-18T07:00:18.080Z,100.00
2023-05-18T07:02:47.570Z,100.00
2023-05-18T07:05:17.143Z,100.00
2023-05-18T07:07:45.821Z,100.00
2023-05-18T07:10:14.374Z,100.00
2023-05-18T07:12:43.016Z,100.00
2023-05-18T07:15:13.479Z,100.00
2023-05-18T07:17:42.255Z,100.00
2023-05-18T07:20:11.979Z,100.00
2023-05-18T07:22:40.660Z,100.00
2023-05-18T07:25:10.163Z,100.00
2023-05-18T07:27:39.107Z,100.00
2023-05-18T07:30:09.446Z,100.00
2023-05-18T07:32:39.897Z,100.00
2023-05-18T07:35:10.119Z,100.00
2023-05-18T07:37:39.276Z,100.00
2023-05-18T07:40:09.952Z,100.00
2023-05-18T07:42:41.993Z,100.00
2023-05-18T07:45:11.900Z,100.00
2023-05-18T07:47:41.900Z,100.00
2023-05-18T07:50:11.677Z,100.00
2023-05-18T07:52:40.164Z,100.00
2023-05-18T07:55:09.582Z,100.00
2023-05-18T07:57:38.361Z,100.00
2023-05-18T08:00:09.964Z,100.00
2023-05-18T08:02:45.118Z,100.00
2023-05-18T08:05:14.071Z,100.00
2023-05-18T08:07:43.278Z,100.00
2023-05-18T08:10:12.944Z,100.00
2023-05-18T08:12:42.233Z,100.00
2023-05-18T08:15:13.695Z,100.00
2023-05-18T08:17:44.210Z,100.00
2023-05-18T08:20:14.166Z,100.00
2023-05-18T08:22:42.887Z,100.00
2023-05-18T08:25:11.733Z,100.00
2023-05-18T08:27:40.429Z,100.00
2023-05-18T08:30:10.148Z,100.00
2023-05-18T08:32:38.813Z,99.25
2023-05-18T08:35:10.430Z,91.49
2023-05-18T08:37:39.894Z,93.16
2023-05-18T08:40:11.645Z,89.71
2023-05-18T08:42:50.366Z,85.11
2023-05-18T08:45:25.338Z,81.46
2023-05-18T08:47:58.469Z,76.53
2023-05-18T08:50:32.419Z,77.30
2023-05-18T08:53:03.539Z,75.64
2023-05-18T08:55:37.075Z,76.39
2023-05-18T08:58:08.653Z,75.14
2023-05-18T09:00:38.273Z,75.71
2023-05-18T09:03:07.512Z,77.32
2023-05-18T09:05:37.773Z,75.17
2023-05-18T09:08:08.373Z,74.14
2023-05-18T09:10:38.306Z,73.12
2023-05-18T09:13:07.765Z,74.11
2023-05-18T09:15:36.556Z,73.89
2023-05-18T09:18:05.394Z,73.10
2023-05-18T09:20:34.381Z,72.81
2023-05-18T09:23:04.382Z,72.85
2023-05-18T09:25:35.237Z,72.62
2023-05-18T09:28:05.262Z,69.51
2023-05-18T09:30:41.714Z,67.59
2023-05-18T09:33:18.815Z,67.60
2023-05-18T09:35:47.654Z,66.57
2023-05-18T09:38:22.186Z,68.30
2023-05-18T09:40:52.038Z,67.44
2023-05-18T09:43:21.702Z,66.35
2023-05-18T09:45:51.231Z,66.98
2023-05-18T09:48:20.794Z,66.63
2023-05-18T09:50:51.454Z,65.50
2023-05-18T09:53:21.440Z,65.56
2023-05-18T09:55:51.315Z,65.43
2023-05-18T09:58:20.314Z,63.22
2023-05-18T10:00:52.061Z,62.91
2023-05-18T10:03:22.732Z,66.10
2023-05-18T10:05:51.813Z,64.50
2023-05-18T10:08:21.949Z,62.60
2023-05-18T10:10:51.602Z,61.19
2023-05-18T10:13:21.174Z,62.24
2023-05-18T10:15:52.692Z,60.35
2023-05-18T10:18:26.293Z,59.19
2023-05-18T10:20:59.125Z,59.35
2023-05-18T10:23:35.050Z,57.49
2023-05-18T10:26:06.938Z,58.66
2023-05-18T10:28:42.640Z,58.24
2023-05-18T10:31:11.940Z,58.86
2023-05-18T10:33:40.814Z,56.81
2023-05-18T10:36:11.906Z,56.05
2023-05-18T10:38:45.595Z,53.97
2023-05-18T10:41:14.954Z,55.49
2023-05-18T10:43:44.385Z,56.13
2023-05-18T10:46:16.235Z,56.73
2023-05-18T10:48:49.704Z,56.13
2023-05-18T10:51:20.692Z,55.74
2023-05-18T10:53:52.798Z,54.47
2023-05-18T10:56:22.676Z,53.60
2023-05-18T10:58:51.370Z,53.74
2023-05-18T11:01:20.290Z,53.51
2023-05-18T11:03:51.218Z,53.20
2023-05-18T11:06:25.879Z,51.37
2023-05-18T11:08:56.542Z,52.73
2023-05-18T11:11:26.532Z,51.94
2023-05-18T11:13:55.900Z,52.28
2023-05-18T11:16:35.831Z,51.00
2023-05-18T11:19:09.163Z,51.21
2023-05-18T11:21:55.520Z,50.31
2023-05-18T11:24:32.329Z,53.92
2023-05-18T11:27:03.836Z,53.69
2023-05-18T11:29:35.414Z,52.67
2023-05-18T11:32:05.245Z,52.82
2023-05-18T11:34:46.110Z,50.11
2023-05-18T11:37:16.248Z,51.78
2023-05-18T11:39:59.757Z,46.27
2023-05-18T11:42:35.071Z,49.01
2023-05-18T11:45:11.188Z,49.01
2023-05-18T11:47:41.631Z,50.25
2023-05-18T11:50:13.125Z,48.06
2023-05-18T11:52:54.247Z,42.57
2023-05-18T11:55:38.309Z,46.42
2023-05-18T11:58:10.500Z,45.66
2023-05-18T12:00:39.833Z,46.18
2023-05-18T12:03:09.186Z,44.06
2023-05-18T12:05:38.337Z,43.69
2023-05-18T12:08:07.116Z,44.46
2023-05-18T12:10:38.216Z,42.75
2023-05-18T12:13:08.107Z,43.48
2023-05-18T12:15:38.079Z,42.88
2023-05-18T12:18:06.739Z,42.87
2023-05-18T12:20:35.703Z,41.90
2023-05-18T12:23:04.556Z,41.29
2023-05-18T12:25:33.495Z,40.99
2023-05-18T12:28:05.127Z,39.95
2023-05-18T12:30:36.481Z,40.78
2023-05-18T12:33:07.187Z,40.52
2023-05-18T12:35:36.066Z,39.61
2023-05-18T12:38:05.818Z,39.02
2023-05-18T12:40:44.747Z,38.25
2023-05-18T12:43:15.930Z,40.08
2023-05-18T12:45:46.556Z,38.95
2023-05-18T12:48:15.525Z,38.18
2023-05-18T12:50:48.507Z,37.72
2023-05-18T12:53:18.121Z,37.79
2023-05-18T12:55:48.207Z,38.10
2023-05-18T12:58:19.840Z,38.41
2023-05-18T13:00:50.200Z,38.60
2023-05-18T13:03:20.550Z,38.23
2023-05-18T13:06:05.859Z,34.70
2023-05-18T13:08:36.098Z,37.44
2023-05-18T13:11:13.560Z,37.66
2023-05-18T13:14:03.775Z,36.18
2023-05-18T13:16:35.912Z,37.83
2023-05-18T13:19:07.172Z,38.44
2023-05-18T13:21:36.519Z,38.77
2023-05-18T13:24:06.027Z,38.23
2023-05-18T13:26:34.927Z,38.30
2023-05-18T13:29:05.200Z,37.92
2023-05-18T13:31:33.672Z,38.40
2023-05-18T13:34:03.098Z,37.56
2023-05-18T13:36:36.138Z,38.42
2023-05-18T13:39:07.573Z,38.44
2023-05-18T13:41:36.658Z,37.92
2023-05-18T13:44:07.181Z,37.01
2023-05-18T13:46:38.020Z,37.76
2023-05-18T13:49:06.964Z,37.69
2023-05-18T13:51:35.513Z,37.73
2023-05-18T13:54:04.269Z,36.87
2023-05-18T13:56:33.571Z,37.50
2023-05-18T13:59:02.447Z,37.98
2023-05-18T14:01:32.884Z,37.81
2023-05-18T14:04:01.843Z,38.30
2023-05-18T14:06:30.572Z,37.06
2023-05-18T14:08:59.249Z,36.70
2023-05-18T14:11:27.724Z,36.65
2023-05-18T14:13:56.141Z,37.22
2023-05-18T14:16:24.899Z,37.41
2023-05-18T14:18:54.965Z,36.91
2023-05-18T14:21:23.613Z,37.83
2023-05-18T14:23:52.217Z,37.43
2023-05-18T14:26:22.127Z,37.60
2023-05-18T14:28:50.852Z,37.10
2023-05-18T14:31:19.712Z,37.46
2023-05-18T14:33:49.164Z,37.42
2023-05-18T14:36:21.935Z,37.89
2023-05-18T14:38:51.140Z,38.30
2023-05-18T14:41:20.112Z,37.98
2023-05-18T14:43:51.211Z,37.87
2023-05-18T14:46:20.135Z,37.63
2023-05-18T14:48:48.960Z,37.76
2023-05-18T14:51:19.304Z,38.07
2023-05-18T14:53:47.824Z,38.30
2023-05-18T14:56:16.379Z,38.20
2023-05-18T14:58:45.072Z,38.32
2023-05-18T15:01:13.496Z,38.25
2023-05-18T15:03:42.129Z,38.54
2023-05-18T15:06:11.069Z,38.44
2023-05-18T15:08:41.235Z,38.84
2023-05-18T15:11:09.625Z,39.02
2023-05-18T15:13:38.622Z,38.90
2023-05-18T15:16:07.757Z,38.99
2023-05-18T15:18:36.588Z,39.33
2023-05-18T15:21:05.437Z,39.45
2023-05-18T15:23:34.338Z,39.12
2023-05-18T15:26:06.758Z,38.88
2023-05-18T15:28:37.704Z,39.08
2023-05-18T15:31:06.523Z,39.02
2023-05-18T15:33:36.798Z,38.83
2023-05-18T15:36:06.158Z,38.70
2023-05-18T15:38:34.681Z,38.62
2023-05-18T15:41:04.752Z,38.22
2023-05-18T15:43:33.838Z,38.65
2023-05-18T15:46:02.804Z,38.19
2023-05-18T15:48:31.919Z,38.64
2023-05-18T15:51:00.530Z,38.69
2023-05-18T15:53:29.313Z,38.62
2023-05-18T15:55:59.538Z,37.87
2023-05-18T15:58:30.383Z,37.75
2023-05-18T16:00:59.255Z,38.26
2023-05-18T16:03:28.182Z,38.22
2023-05-18T16:05:57.402Z,37.95
2023-05-18T16:08:26.381Z,37.82
2023-05-18T16:10:54.982Z,37.67
2023-05-18T16:13:26.926Z,37.58
2023-05-18T16:15:59.721Z,37.79
2023-05-18T16:18:28.205Z,38.28
2023-05-18T16:20:56.595Z,38.33
2023-05-18T16:23:25.286Z,38.46
2023-05-18T16:25:53.924Z,39.05
2023-05-18T16:28:22.629Z,38.79
2023-05-18T16:30:51.691Z,38.74
2023-05-18T16:33:21.637Z,38.32
2023-05-18T16:35:50.260Z,38.95
2023-05-18T16:38:18.798Z,39.21
2023-05-18T16:40:47.302Z,39.49
2023-05-18T16:43:16.215Z,39.49
2023-05-18T16:45:44.869Z,39.91
2023-05-18T16:48:13.382Z,40.34
2023-05-18T16:50:43.353Z,40.19
2023-05-18T16:53:11.870Z,40.17
2023-05-18T16:55:40.568Z,40.76
2023-05-18T16:58:09.196Z,40.93
2023-05-18T17:00:37.803Z,40.94
2023-05-18T17:03:06.714Z,41.26
2023-05-18T17:05:35.937Z,41.34
2023-05-18T17:08:06.370Z,40.67
2023-05-18T17:10:35.746Z,41.13
2023-05-18T17:13:04.302Z,41.29
2023-05-18T17:15:33.576Z,41.63
2023-05-18T17:18:02.405Z,41.13
2023-05-18T17:20:31.208Z,41.19
2023-05-18T17:23:01.816Z,41.45
2023-05-18T17:25:32.337Z,41.53
2023-05-18T17:28:01.107Z,41.81
2023-05-18T17:30:29.685Z,41.76
2023-05-18T17:32:58.340Z,42.04
2023-05-18T17:35:27.074Z,41.70
2023-05-18T17:37:55.938Z,42.18
2023-05-18T17:40:24.706Z,42.40
2023-05-18T17:42:54.629Z,42.28
2023-05-18T17:45:23.253Z,42.58
2023-05-18T17:47:52.422Z,42.74
2023-05-18T17:50:21.162Z,42.82
2023-05-18T17:52:49.520Z,43.12
2023-05-18T17:55:18.086Z,43.70
2023-05-18T17:57:47.045Z,44.34
2023-05-18T18:00:18.768Z,44.74
2023-05-18T18:02:47.556Z,44.56
2023-05-18T18:05:16.579Z,44.69
2023-05-18T18:07:47.360Z,44.91
2023-05-18T18:10:15.892Z,45.35
2023-05-18T18:12:44.414Z,45.43
2023-05-18T18:15:13.479Z,45.49
2023-05-18T18:17:43.619Z,45.38
2023-05-18T18:20:12.962Z,45.94
2023-05-18T18:22:41.559Z,46.43
2023-05-18T18:25:10.404Z,46.53
2023-05-18T18:27:39.065Z,47.24
2023-05-18T18:30:08.979Z,47.92
2023-05-18T18:32:37.723Z,48.46
2023-05-18T18:35:08.405Z,49.23
2023-05-18T18:37:37.155Z,49.44
2023-05-18T18:40:07.238Z,49.57
2023-05-18T18:42:35.815Z,50.29
2023-05-18T18:45:04.863Z,50.45
2023-05-18T18:47:33.516Z,51.00
2023-05-18T18:50:02.895Z,51.91
2023-05-18T18:52:32.893Z,51.98
2023-05-18T18:55:01.445Z,53.72
2023-05-18T18:57:30.193Z,53.74
2023-05-18T19:00:01.093Z,54.20
2023-05-18T19:02:29.854Z,55.21
2023-05-18T19:04:58.603Z,56.20
2023-05-18T19:07:27.342Z,58.17
2023-05-18T19:09:57.384Z,58.51
2023-05-18T19:12:26.393Z,58.70
2023-05-18T19:14:55.444Z,58.75
2023-05-18T19:17:24.590Z,59.07
2023-05-18T19:19:53.609Z,60.08
2023-05-18T19:22:22.166Z,60.22
2023-05-18T19:24:50.710Z,62.21
2023-05-18T19:27:20.856Z,63.17
2023-05-18T19:29:49.407Z,64.91
2023-05-18T19:32:18.015Z,67.24
2023-05-18T19:34:46.643Z,68.37
2023-05-18T19:37:15.242Z,71.45
2023-05-18T19:39:43.854Z,71.69
2023-05-18T19:42:12.467Z,71.83
2023-05-18T19:44:42.566Z,72.89
2023-05-18T19:47:11.260Z,73.51
2023-05-18T19:49:39.786Z,74.93
2023-05-18T19:52:10.454Z,77.67
2023-05-18T19:54:39.072Z,78.38
2023-05-18T19:57:07.717Z,79.11
2023-05-18T19:59:37.150Z,80.97
2023-05-18T20:02:07.547Z,84.23
2023-05-18T20:04:36.256Z,86.65
2023-05-18T20:07:05.238Z,89.46
2023-05-18T20:09:33.853Z,90.15
2023-05-18T20:12:06.311Z,91.71
2023-05-18T20:14:36.850Z,93.69
2023-05-18T20:17:07.479Z,97.10
2023-05-18T20:19:37.988Z,98.82
2023-05-18T20:22:09.200Z,99.19
2023-05-18T20:24:38.756Z,100.00
2023-05-18T20:27:07.902Z,100.00
2023-05-18T20:29:36.464Z,100.00
2023-05-18T20:32:07.371Z,100.00
2023-05-18T20:34:36.892Z,100.00
2023-05-18T20:37:09.175Z,100.00
2023-05-18T20:39:40.044Z,100.00
2023-05-18T20:42:12.675Z,100.00
2023-05-18T20:44:42.680Z,100.00
2023-05-18T20:47:12.775Z,100.00
2023-05-18T20:49:41.526Z,100.00
2023-05-18T20:52:10.773Z,100.00
2023-05-18T20:54:39.473Z,100.00
2023-05-18T20:57:08.115Z,100.00
2023-05-18T20:59:36.789Z,100.00
2023-05-18T21:02:06.091Z,100.00
2023-05-18T21:04:36.386Z,100.00
2023-05-18T21:07:05.685Z,100.00
2023-05-18T21:09:34.673Z,100.00
2023-05-18T21:12:03.877Z,100.00
2023-05-18T21:14:32.570Z,100.00
2023-05-18T21:17:01.301Z,100.00
2023-05-18T21:19:29.962Z,100.00
2023-05-18T21:22:00.149Z,100.00
2023-05-18T21:24:28.836Z,100.00
2023-05-18T21:26:57.521Z,100.00
2023-05-18T21:29:26.455Z,100.00
2023-05-18T21:31:55.365Z,100.00
2023-05-18T21:34:24.009Z,100.00
2023-05-18T21:36:52.818Z,100.00
2023-05-18T21:39:22.713Z,100.00
2023-05-18T21:41:51.316Z,100.00
2023-05-18T21:44:20.002Z,100.00
2023-05-18T21:46:48.662Z,100.00
2023-05-18T21:49:17.271Z,100.00
2023-05-18T21:51:46.139Z,100.00
2023-05-18T21:54:15.040Z,100.00
2023-05-18T21:56:45.088Z,100.00
2023-05-18T21:59:13.755Z,100.00
2023-05-18T22:01:42.278Z,100.00
2023-05-18T22:04:10.952Z,100.00
2023-05-18T22:06:39.517Z,100.00
2023-05-18T22:09:08.265Z,100.00
2023-05-18T22:11:37.094Z,100.00
2023-05-18T22:14:07.444Z,100.00
2023-05-18T22:16:36.159Z,100.00
2023-05-18T22:19:04.720Z,100.00
2023-05-18T22:21:33.267Z,100.00
2023-05-18T22:24:01.990Z,100.00
2023-05-18T22:26:30.646Z,100.00
2023-05-18T22:28:59.365Z,100.00
2023-05-18T22:31:29.453Z,100.00
2023-05-18T22:33:57.973Z,100.00
2023-05-18T22:36:27.613Z,100.00
2023-05-18T22:38:56.971Z,100.00
2023-05-18T22:41:27.038Z,100.00
2023-05-18T22:43:55.843Z,100.00
2023-05-18T22:46:24.581Z,100.00
2023-05-18T22:48:54.724Z,100.00
2023-05-18T22:51:26.386Z,100.00
2023-05-18T22:53:55.912Z,100.00
2023-05-18T22:56:24.537Z,100.00
2023-05-18T22:58:53.179Z,100.00
2023-05-18T23:01:21.730Z,100.00
2023-05-18T23:03:50.446Z,100.00
2023-05-18T23:06:22.520Z,100.00
2023-05-18T23:08:52.372Z,100.00
2023-05-18T23:11:22.243Z,100.00
2023-05-18T23:13:51.469Z,100.00
2023-05-18T23:16:20.588Z,100.00
2023-05-18T23:18:50.704Z,100.00
2023-05-18T23:21:21.906Z,100.00
2023-05-18T23:23:50.475Z,100.00
2023-05-18T23:26:19.082Z,100.00
2023-05-18T23:28:47.723Z,100.00
2023-05-18T23:31:16.484Z,100.00
2023-05-18T23:33:45.773Z,100.00
2023-05-18T23:36:16.001Z,100.00
2023-05-18T23:38:47.310Z,100.00
2023-05-18T23:41:16.696Z,100.00
2023-05-18T23:43:45.940Z,100.00
2023-05-18T23:46:14.972Z,100.00
2023-05-18T23:48:44.084Z,100.00
2023-05-18T23:51:17.257Z,100.00
2023-05-18T23:53:48.236Z,100.00
2023-05-18T23:56:17.281Z,100.00
2023-05-18T23:58:47.261Z,100.00
